Time;durP1;ratioP1;P1;durP2;ratioP2;P2;SDS_P1;SDS_P2;PMS_P1;PMS_P2;Temp;Humidity;BMP_temperature;BMP_pressure;BME280_temperature;BME280_humidity;BME280_pressure;Samples;Min_cycle;Max_cycle;Signal;HPM_P1;HPM_P2
2022/07/30 00:02:06;;;;;;;14.35;6.28;;;17.20;99.90;;;;;;5029263;28;20044;-63
2022/07/30 00:04:31;;;;;;;11.13;6.35;;;17.20;99.90;;;;;;5030476;28;20034;-63
2022/07/30 00:06:58;;;;;;;16.27;6.30;;;17.10;99.90;;;;;;5028078;28;20392;-63
2022/07/30 00:09:23;;;;;;;13.00;5.93;;;17.10;99.90;;;;;;5027633;28;20030;-63
2022/07/30 00:11:49;;;;;;;11.30;5.70;;;17.10;99.90;;;;;;5026023;28;20415;-63
2022/07/30 00:14:15;;;;;;;12.27;5.85;;;17.10;99.90;;;;;;5027458;28;20029;-63
2022/07/30 00:16:40;;;;;;;10.88;5.90;;;17.10;99.90;;;;;;5028868;28;20042;-63
2022/07/30 00:19:06;;;;;;;13.77;6.35;;;17.00;99.90;;;;;;5012724;28;20033;-63
2022/07/30 00:21:32;;;;;;;16.52;6.75;;;17.00;99.90;;;;;;5025896;28;20029;-63
2022/07/30 00:23:58;;;;;;;11.75;6.72;;;16.90;99.90;;;;;;5029332;28;20037;-63
2022/07/30 00:26:23;;;;;;;9.77;6.15;;;16.90;99.90;;;;;;5024099;28;20029;-63
2022/07/30 00:28:49;;;;;;;9.32;5.78;;;16.90;99.90;;;;;;5029489;28;20037;-63
2022/07/30 00:31:14;;;;;;;11.13;6.60;;;16.90;99.90;;;;;;5027900;28;20036;-62
2022/07/30 00:33:40;;;;;;;7.45;5.80;;;16.90;99.90;;;;;;5025506;28;20101;-63
2022/07/30 00:36:05;;;;;;;17.70;6.88;;;16.90;99.90;;;;;;5029042;28;20034;-63
2022/07/30 00:38:31;;;;;;;12.73;7.10;;;16.90;99.90;;;;;;5019133;28;20087;-63
2022/07/30 00:40:57;;;;;;;18.08;7.10;;;16.90;99.90;;;;;;5028946;28;20060;-62
2022/07/30 00:43:22;;;;;;;17.13;6.65;;;16.90;99.90;;;;;;5029559;28;20072;-63
2022/07/30 00:45:48;;;;;;;14.07;6.50;;;17.00;99.90;;;;;;5028572;28;20029;-63
2022/07/30 00:48:14;;;;;;;15.55;7.07;;;17.00;99.90;;;;;;5028841;28;20069;-63
2022/07/30 00:50:40;;;;;;;11.82;9.10;;;17.10;99.90;;;;;;5026830;28;20021;-63
2022/07/30 00:53:06;;;;;;;14.63;7.55;;;17.20;99.90;;;;;;5026510;28;20026;-62
2022/07/30 00:55:32;;;;;;;11.52;7.65;;;17.30;99.90;;;;;;5026643;28;20033;-63
2022/07/30 00:57:58;;;;;;;11.85;7.10;;;17.30;99.90;;;;;;5026823;28;20034;-61
2022/07/30 01:00:24;;;;;;;16.10;8.20;;;17.30;99.90;;;;;;5024501;28;20025;-63
2022/07/30 01:02:50;;;;;;;15.70;9.73;;;17.40;99.90;;;;;;5024256;28;20097;-63
2022/07/30 01:05:15;;;;;;;13.65;9.18;;;17.40;99.90;;;;;;5029602;28;20551;-63
2022/07/30 01:07:42;;;;;;;13.82;8.20;;;17.40;99.90;;;;;;5027154;28;20056;-63
2022/07/30 01:10:10;;;;;;;13.43;8.57;;;17.50;99.90;;;;;;5028434;28;20029;-63
2022/07/30 01:12:36;;;;;;;15.95;8.48;;;17.50;99.90;;;;;;5023077;28;20048;-63
2022/07/30 01:15:05;;;;;;;16.25;8.15;;;17.50;99.90;;;;;;5028410;28;20033;-63
2022/07/30 01:17:31;;;;;;;15.90;8.45;;;17.50;99.90;;;;;;5029237;28;20078;-63
2022/07/30 01:20:01;;;;;;;13.25;7.93;;;17.50;99.90;;;;;;5028367;28;20026;-63
2022/07/30 01:22:27;;;;;;;12.57;7.40;;;17.50;99.90;;;;;;5024471;28;20613;-63
2022/07/30 01:25:10;;;;;;;15.02;8.48;;;17.60;99.90;;;;;;5027685;28;20100;-63
2022/07/30 01:27:42;;;;;;;15.25;8.65;;;17.60;99.90;;;;;;5023136;28;20403;-63
2022/07/30 01:30:09;;;;;;;12.05;7.45;;;17.60;99.90;;;;;;5026658;28;20036;-63
2022/07/30 01:32:40;;;;;;;14.98;7.97;;;17.60;99.90;;;;;;5026440;28;20125;-62
2022/07/30 01:35:08;;;;;;;14.88;7.60;;;17.70;99.90;;;;;;5024717;28;20026;-63
2022/07/30 01:37:35;;;;;;;14.05;8.20;;;17.60;99.90;;;;;;5029110;28;20663;-63
2022/07/30 01:40:02;;;;;;;18.42;7.82;;;17.70;99.90;;;;;;5025246;28;20022;-63
2022/07/30 01:42:29;;;;;;;13.60;7.80;;;17.70;99.90;;;;;;5022073;28;20399;-63
2022/07/30 01:44:56;;;;;;;16.55;7.53;;;17.70;99.90;;;;;;5018191;28;20118;-63
2022/07/30 01:47:24;;;;;;;15.18;6.93;;;17.70;99.90;;;;;;5027679;28;20029;-63
2022/07/30 01:49:51;;;;;;;12.15;7.95;;;17.70;99.90;;;;;;5023668;28;20030;-63
2022/07/30 01:52:18;;;;;;;10.77;7.20;;;17.70;99.90;;;;;;5029342;28;20025;-62
2022/07/30 01:54:47;;;;;;;14.98;7.38;;;17.70;99.90;;;;;;5027294;28;20026;-63
2022/07/30 01:57:14;;;;;;;11.93;7.68;;;17.70;99.90;;;;;;5023856;28;20018;-63
2022/07/30 01:59:42;;;;;;;15.45;7.15;;;17.80;99.90;;;;;;5025023;28;20099;-63
2022/07/30 02:02:08;;;;;;;13.05;7.40;;;17.70;99.90;;;;;;5007887;28;20021;-63
2022/07/30 02:04:33;;;;;;;15.52;7.32;;;17.70;99.90;;;;;;5008028;28;20091;-63
2022/07/30 02:07:15;;;;;;;15.40;7.47;;;17.70;99.90;;;;;;5029782;28;20026;-63
2022/07/30 02:09:50;;;;;;;16.98;8.05;;;17.70;99.90;;;;;;5021437;28;20026;-63
2022/07/30 02:12:28;;;;;;;11.60;7.20;;;17.70;99.90;;;;;;5020961;28;20117;-63
2022/07/30 02:15:04;;;;;;;14.65;8.10;;;17.60;99.90;;;;;;5024411;28;20056;-63
2022/07/30 02:17:39;;;;;;;10.40;8.13;;;17.60;99.90;;;;;;5029404;28;20099;-63
2022/07/30 02:20:06;;;;;;;10.15;8.20;;;17.60;99.90;;;;;;5025937;28;20029;-63
2022/07/30 02:22:35;;;;;;;17.58;8.27;;;17.60;99.90;;;;;;5027900;28;20026;-63
2022/07/30 02:25:02;;;;;;;13.05;7.30;;;17.60;99.90;;;;;;5024624;28;20072;-63
2022/07/30 02:27:30;;;;;;;12.27;8.57;;;17.50;99.90;;;;;;5024933;28;20044;-63
2022/07/30 02:29:59;;;;;;;13.82;8.23;;;17.50;99.90;;;;;;5006463;28;20419;-62
2022/07/30 02:32:28;;;;;;;13.02;9.05;;;17.50;99.90;;;;;;5024320;28;20051;-61
2022/07/30 02:34:59;;;;;;;17.98;9.05;;;17.50;99.90;;;;;;5028188;28;20033;-63
2022/07/30 02:37:26;;;;;;;13.90;8.40;;;17.40;99.90;;;;;;5032746;28;20169;-63
2022/07/30 02:39:53;;;;;;;13.13;7.75;;;17.40;99.90;;;;;;5026128;28;20034;-63
2022/07/30 02:42:21;;;;;;;22.58;8.57;;;17.40;99.90;;;;;;5025281;28;20044;-63
2022/07/30 02:44:49;;;;;;;14.63;8.95;;;17.30;99.90;;;;;;5029069;28;20013;-63
2022/07/30 02:47:16;;;;;;;14.27;8.10;;;17.30;99.90;;;;;;5032234;28;20403;-63
2022/07/30 02:49:43;;;;;;;14.85;8.75;;;17.30;99.90;;;;;;5031722;28;20041;-63
2022/07/30 02:52:12;;;;;;;16.75;8.32;;;17.40;99.90;;;;;;5028669;28;20029;-63
2022/07/30 02:54:41;;;;;;;14.20;8.88;;;17.30;99.90;;;;;;5027233;28;20033;-63
2022/07/30 02:57:08;;;;;;;14.85;8.32;;;17.30;99.90;;;;;;5029873;28;20032;-63
2022/07/30 02:59:36;;;;;;;16.75;10.20;;;17.30;99.90;;;;;;5022782;28;20025;-63
2022/07/30 03:02:03;;;;;;;12.55;8.85;;;17.20;99.90;;;;;;5028000;28;20030;-62
2022/07/30 03:04:31;;;;;;;10.90;8.45;;;17.20;99.90;;;;;;5024452;28;20021;-63
2022/07/30 03:06:58;;;;;;;19.00;8.60;;;17.10;99.90;;;;;;5026027;28;20407;-63
2022/07/30 03:09:25;;;;;;;16.92;8.45;;;17.20;99.90;;;;;;5025721;28;20411;-62
2022/07/30 03:11:52;;;;;;;13.90;8.30;;;17.20;99.90;;;;;;5026904;28;20397;-63
2022/07/30 03:14:18;;;;;;;15.38;8.20;;;17.20;99.90;;;;;;5030059;28;20368;-63
2022/07/30 03:16:50;;;;;;;15.23;8.90;;;17.20;99.90;;;;;;5027282;28;20048;-63
2022/07/30 03:19:18;;;;;;;17.17;8.45;;;17.20;99.90;;;;;;5026593;28;20025;-63
2022/07/30 03:21:44;;;;;;;18.20;9.02;;;17.20;99.90;;;;;;5027375;28;20057;-63
2022/07/30 03:24:12;;;;;;;15.65;9.18;;;17.30;99.90;;;;;;5032731;28;20021;-63
2022/07/30 03:26:40;;;;;;;15.73;9.10;;;17.20;99.90;;;;;;5029802;28;20025;-63
2022/07/30 03:29:07;;;;;;;16.45;9.43;;;17.20;99.90;;;;;;5023406;28;20026;-63
2022/07/30 03:31:33;;;;;;;20.88;10.65;;;17.20;99.90;;;;;;5026760;28;20636;-63
2022/07/30 03:33:59;;;;;;;16.92;8.45;;;17.10;99.90;;;;;;5031155;28;20033;-63
2022/07/30 03:36:25;;;;;;;17.35;10.07;;;17.10;99.90;;;;;;5026008;28;20029;-63
2022/07/30 03:38:51;;;;;;;16.75;9.50;;;17.10;99.90;;;;;;5028399;28;20037;-62
2022/07/30 03:41:18;;;;;;;17.13;9.43;;;17.10;99.90;;;;;;5028484;28;20026;-60
2022/07/30 03:43:45;;;;;;;14.93;9.73;;;17.10;99.90;;;;;;5022039;28;20608;-62
2022/07/30 03:46:12;;;;;;;15.07;10.13;;;17.00;99.90;;;;;;5030291;28;20103;-63
2022/07/30 03:48:38;;;;;;;14.50;9.90;;;17.00;99.90;;;;;;5025679;28;20025;-63
2022/07/30 03:51:06;;;;;;;10.98;8.85;;;17.00;99.90;;;;;;5031781;28;20021;-63
2022/07/30 03:53:31;;;;;;;12.52;9.45;;;17.00;99.90;;;;;;5029827;28;20687;-63
2022/07/30 03:55:58;;;;;;;14.27;9.48;;;16.90;99.90;;;;;;5025338;28;20113;-62
2022/07/30 03:58:23;;;;;;;15.90;9.93;;;16.90;99.90;;;;;;5028386;28;20115;-63
2022/07/30 04:00:50;;;;;;;19.52;10.85;;;16.80;99.90;;;;;;5029470;28;20064;-63
2022/07/30 04:03:29;;;;;;;16.08;9.18;;;16.80;99.90;;;;;;5029306;28;20100;-63
2022/07/30 04:05:55;;;;;;;19.98;9.85;;;16.80;99.90;;;;;;5031025;28;20026;-62
2022/07/30 04:08:20;;;;;;;14.05;10.13;;;16.70;99.90;;;;;;5030582;28;20048;-63
2022/07/30 04:10:47;;;;;;;18.83;10.73;;;16.60;99.90;;;;;;5027082;28;20372;-62
2022/07/30 04:13:13;;;;;;;21.20;12.18;;;16.50;99.90;;;;;;5049179;23;20165;-60
2022/07/30 04:15:57;;;;;;;15.98;10.02;;;16.40;99.90;;;;;;5027176;28;20497;-61
2022/07/30 04:18:25;;;;;;;18.42;11.52;;;16.30;99.90;;;;;;5012718;28;20407;-60
2022/07/30 04:20:53;;;;;;;16.65;11.20;;;16.40;99.90;;;;;;5024207;28;20017;-60
2022/07/30 04:23:19;;;;;;;21.05;10.70;;;16.40;99.90;;;;;;5011172;28;20022;-60
2022/07/30 04:25:45;;;;;;;22.55;11.63;;;16.40;99.90;;;;;;5010320;28;20026;-60
2022/07/30 04:28:12;;;;;;;19.50;11.18;;;16.40;99.90;;;;;;5009461;28;20038;-60
2022/07/30 04:30:39;;;;;;;14.82;10.40;;;16.40;99.90;;;;;;5011163;28;20037;-61
2022/07/30 04:33:04;;;;;;;14.88;10.93;;;16.40;99.90;;;;;;5010418;28;20026;-61
2022/07/30 04:35:32;;;;;;;20.90;12.68;;;16.40;99.90;;;;;;5011101;28;20046;-61
2022/07/30 04:37:59;;;;;;;23.40;12.10;;;16.40;99.90;;;;;;5009418;28;20034;-61
2022/07/30 04:40:24;;;;;;;16.35;10.63;;;16.40;99.90;;;;;;5010905;28;20104;-61
2022/07/30 04:42:50;;;;;;;17.15;10.48;;;16.40;99.90;;;;;;5010882;28;20053;-61
2022/07/30 04:45:18;;;;;;;26.15;10.95;;;16.40;99.90;;;;;;5010514;28;20022;-60
2022/07/30 04:47:45;;;;;;;21.33;11.15;;;16.40;99.90;;;;;;5010967;28;20101;-60
2022/07/30 04:50:12;;;;;;;24.90;12.77;;;16.40;99.90;;;;;;5010269;28;20099;-60
2022/07/30 04:52:38;;;;;;;20.30;11.57;;;16.40;99.90;;;;;;5009011;28;20026;-58
2022/07/30 04:55:06;;;;;;;15.15;11.75;;;16.40;99.90;;;;;;5007239;28;20034;-59
2022/07/30 04:57:36;;;;;;;16.73;11.48;;;16.40;99.90;;;;;;5010643;28;20038;-59
2022/07/30 05:00:03;;;;;;;26.67;12.55;;;16.50;99.90;;;;;;5010017;28;20033;-60
2022/07/30 05:02:30;;;;;;;21.60;12.02;;;16.50;99.90;;;;;;5009547;28;20033;-59
2022/07/30 05:04:57;;;;;;;19.83;11.95;;;16.60;99.90;;;;;;5010064;28;20032;-59
2022/07/30 05:07:24;;;;;;;20.05;11.40;;;16.60;99.90;;;;;;5008848;28;20026;-61
2022/07/30 05:09:50;;;;;;;18.40;12.63;;;16.60;99.90;;;;;;5009473;28;20076;-60
2022/07/30 05:12:15;;;;;;;18.00;13.02;;;16.70;99.90;;;;;;5008446;28;20049;-58
2022/07/30 05:14:41;;;;;;;19.33;11.35;;;16.70;99.90;;;;;;5007920;28;20030;-63
2022/07/30 05:17:06;;;;;;;25.30;12.85;;;16.70;99.90;;;;;;5009746;28;20392;-61
2022/07/30 05:19:32;;;;;;;21.35;11.75;;;16.70;99.90;;;;;;5010438;28;20018;-60
2022/07/30 05:21:58;;;;;;;22.90;12.75;;;16.70;99.90;;;;;;5006889;28;20041;-59
2022/07/30 05:24:23;;;;;;;20.77;12.93;;;16.70;99.90;;;;;;5003063;28;20046;-60
2022/07/30 05:26:49;;;;;;;21.60;12.82;;;16.70;99.90;;;;;;5010415;28;20285;-60
2022/07/30 05:29:15;;;;;;;18.95;12.13;;;16.70;99.90;;;;;;5006565;28;20547;-58
2022/07/30 05:31:40;;;;;;;22.27;13.32;;;16.80;99.90;;;;;;5002602;28;20043;-58
2022/07/30 05:34:06;;;;;;;31.58;14.48;;;16.80;99.90;;;;;;5009161;28;20102;-59
2022/07/30 05:36:31;;;;;;;32.88;14.07;;;16.90;99.90;;;;;;5009233;28;20030;-58
2022/07/30 05:38:57;;;;;;;26.58;15.25;;;16.90;99.90;;;;;;5011250;28;20026;-59
2022/07/30 05:41:22;;;;;;;26.27;16.08;;;16.90;99.90;;;;;;5010874;28;20038;-59
2022/07/30 05:43:48;;;;;;;25.15;15.82;;;17.00;99.90;;;;;;5011217;28;20033;-60
2022/07/30 05:46:13;;;;;;;33.22;16.15;;;17.00;99.90;;;;;;5011202;28;20108;-60
2022/07/30 05:48:39;;;;;;;35.67;18.90;;;17.00;99.90;;;;;;5009919;28;20496;-60
2022/07/30 05:51:05;;;;;;;29.80;17.85;;;17.10;99.90;;;;;;5008880;28;20107;-57
2022/07/30 05:53:31;;;;;;;39.42;18.55;;;17.10;99.90;;;;;;5010496;28;20408;-60
2022/07/30 05:55:57;;;;;;;36.50;18.00;;;17.10;99.90;;;;;;5011518;28;20026;-61
2022/07/30 05:58:22;;;;;;;32.63;18.38;;;17.10;99.90;;;;;;5010955;28;20117;-60
2022/07/30 06:00:48;;;;;;;33.63;18.65;;;17.20;99.90;;;;;;5010961;28;20110;-60
2022/07/30 06:03:13;;;;;;;29.40;18.10;;;17.20;99.90;;;;;;5010738;28;20022;-60
2022/07/30 06:05:39;;;;;;;30.40;18.27;;;17.20;99.90;;;;;;5010081;28;20081;-61
2022/07/30 06:08:05;;;;;;;30.58;19.05;;;17.30;99.90;;;;;;5013482;28;20587;-60
2022/07/30 06:10:31;;;;;;;30.77;18.45;;;17.30;99.90;;;;;;5015550;28;20049;-61
2022/07/30 06:12:56;;;;;;;35.25;19.95;;;17.40;99.90;;;;;;5015129;28;20040;-61
2022/07/30 06:15:22;;;;;;;32.35;19.63;;;17.40;99.90;;;;;;5011695;28;20100;-60
2022/07/30 06:17:48;;;;;;;39.45;19.70;;;17.40;99.90;;;;;;5015214;28;20484;-60
2022/07/30 06:20:16;;;;;;;39.08;20.20;;;17.40;99.90;;;;;;5014290;28;20440;-60
2022/07/30 06:22:41;;;;;;;40.10;21.98;;;17.50;99.90;;;;;;5014953;28;20099;-57
2022/07/30 06:25:07;;;;;;;46.33;21.77;;;17.50;99.90;;;;;;5011954;28;20505;-61
2022/07/30 06:27:35;;;;;;;42.28;23.45;;;17.50;99.90;;;;;;5012421;28;20171;-60
2022/07/30 06:30:02;;;;;;;43.45;22.38;;;17.50;99.90;;;;;;5014969;28;20068;-61
2022/07/30 06:32:28;;;;;;;41.72;22.20;;;17.50;99.90;;;;;;5012956;28;20377;-61
2022/07/30 06:34:53;;;;;;;39.97;19.85;;;17.40;99.90;;;;;;5014249;28;20041;-61
2022/07/30 06:37:19;;;;;;;47.28;21.50;;;17.50;99.90;;;;;;5010835;28;20038;-60
2022/07/30 06:39:44;;;;;;;43.05;21.48;;;17.60;99.90;;;;;;5011386;28;20030;-61
2022/07/30 06:42:10;;;;;;;40.20;19.95;;;17.60;99.90;;;;;;5014015;28;20038;-61
2022/07/30 06:44:35;;;;;;;45.35;21.25;;;17.60;99.90;;;;;;5014962;28;20109;-59
2022/07/30 06:47:01;;;;;;;39.15;20.73;;;17.60;99.90;;;;;;5013067;28;20117;-60
2022/07/30 06:49:26;;;;;;;36.83;19.08;;;17.70;99.90;;;;;;5013883;28;20042;-61
2022/07/30 06:51:52;;;;;;;38.35;18.30;;;17.70;99.90;;;;;;5013222;28;20044;-61
2022/07/30 06:54:17;;;;;;;40.30;19.67;;;17.80;99.90;;;;;;5014574;28;20503;-60
2022/07/30 06:56:43;;;;;;;37.45;20.15;;;17.90;99.90;;;;;;5013320;28;20033;-60
2022/07/30 06:59:08;;;;;;;36.67;19.88;;;17.90;99.90;;;;;;5012109;28;20404;-60
2022/07/30 07:01:34;;;;;;;42.92;22.13;;;17.90;99.90;;;;;;5009143;28;20045;-60
2022/07/30 07:03:59;;;;;;;44.42;21.30;;;17.90;99.90;;;;;;5012775;28;20029;-60
2022/07/30 07:06:25;;;;;;;38.47;21.42;;;18.00;99.90;;;;;;5014342;28;20026;-61
2022/07/30 07:08:50;;;;;;;42.60;22.08;;;18.10;99.90;;;;;;5014126;28;20026;-60
2022/07/30 07:11:16;;;;;;;45.90;22.23;;;18.00;99.90;;;;;;5013195;28;20026;-59
2022/07/30 07:13:42;;;;;;;46.33;21.63;;;18.10;99.90;;;;;;5012723;28;20026;-62
2022/07/30 07:16:07;;;;;;;46.10;21.55;;;18.00;99.90;;;;;;5011812;28;20499;-61
2022/07/30 07:18:33;;;;;;;39.25;20.58;;;18.00;99.90;;;;;;5010004;28;20033;-61
2022/07/30 07:20:58;;;;;;;40.55;21.77;;;18.10;99.90;;;;;;5013202;28;20108;-61
2022/07/30 07:23:24;;;;;;;54.50;22.17;;;18.20;99.90;;;;;;5007600;28;20101;-60
2022/07/30 07:25:49;;;;;;;43.85;21.77;;;18.20;99.90;;;;;;5014178;28;20034;-60
2022/07/30 07:28:15;;;;;;;38.70;18.63;;;18.30;99.90;;;;;;5011751;28;20037;-61
2022/07/30 07:30:42;;;;;;;48.17;21.85;;;18.30;99.90;;;;;;5010831;28;20025;-61
2022/07/30 07:33:08;;;;;;;43.17;21.52;;;18.30;99.90;;;;;;5007279;28;20060;-61
2022/07/30 07:35:34;;;;;;;36.42;19.40;;;18.40;99.90;;;;;;5006097;28;20030;-59
2022/07/30 07:37:59;;;;;;;40.78;20.88;;;18.40;99.90;;;;;;5012551;28;20220;-59
2022/07/30 07:40:25;;;;;;;37.45;19.52;;;18.60;99.90;;;;;;5008866;28;20030;-58
2022/07/30 07:42:50;;;;;;;40.85;22.45;;;18.60;99.90;;;;;;5009507;28;20076;-58
2022/07/30 07:45:16;;;;;;;43.97;22.17;;;18.60;99.90;;;;;;5007795;28;20034;-61
2022/07/30 07:47:46;;;;;;;38.65;20.90;;;18.60;99.90;;;;;;5012061;28;20096;-59
2022/07/30 07:50:14;;;;;;;41.25;19.63;;;18.70;99.90;;;;;;5011259;28;20042;-59
2022/07/30 07:52:40;;;;;;;43.65;20.52;;;18.80;99.90;;;;;;5011945;28;20038;-60
2022/07/30 07:55:06;;;;;;;34.75;19.40;;;18.80;99.90;;;;;;5013587;28;20104;-61
2022/07/30 07:57:41;;;;;;;35.10;18.98;;;18.90;99.90;;;;;;5010535;28;20032;-57
2022/07/30 08:00:08;;;;;;;36.85;20.15;;;19.00;99.90;;;;;;5011431;28;20030;-60
2022/07/30 08:02:34;;;;;;;34.22;19.85;;;19.00;99.90;;;;;;5010829;28;20479;-58
2022/07/30 08:05:00;;;;;;;32.92;19.55;;;19.00;99.90;;;;;;5012484;28;20073;-59
2022/07/30 08:07:25;;;;;;;37.05;19.17;;;19.00;99.90;;;;;;5009663;28;20037;-60
2022/07/30 08:09:51;;;;;;;37.55;19.60;;;19.00;99.90;;;;;;5001918;28;20037;-59
2022/07/30 08:12:16;;;;;;;30.23;18.60;;;19.00;99.90;;;;;;5011213;28;20415;-59
2022/07/30 08:14:42;;;;;;;34.42;17.65;;;19.10;99.90;;;;;;5008684;28;20491;-59
2022/07/30 08:17:08;;;;;;;39.15;19.10;;;19.20;99.90;;;;;;5007674;28;20034;-59
2022/07/30 08:19:33;;;;;;;29.77;20.25;;;19.30;99.90;;;;;;5004534;28;20022;-59
2022/07/30 08:21:59;;;;;;;33.10;16.73;;;19.30;99.90;;;;;;5011689;28;20362;-58
2022/07/30 08:24:24;;;;;;;35.83;17.23;;;19.50;99.90;;;;;;5011225;28;20385;-57
2022/07/30 08:26:50;;;;;;;36.05;16.55;;;19.50;99.90;;;;;;5011195;28;20033;-58
2022/07/30 08:29:16;;;;;;;32.72;17.20;;;19.50;99.90;;;;;;5007905;28;20500;-59
2022/07/30 08:31:42;;;;;;;28.95;16.20;;;19.50;99.90;;;;;;5004937;28;20111;-61
2022/07/30 08:34:08;;;;;;;32.88;15.23;;;19.50;99.90;;;;;;5005912;28;20062;-62
2022/07/30 08:36:33;;;;;;;30.20;14.85;;;19.50;99.90;;;;;;5003454;28;20033;-60
2022/07/30 08:38:59;;;;;;;24.67;14.50;;;19.50;99.90;;;;;;5007808;28;20029;-59
2022/07/30 08:41:25;;;;;;;25.15;16.00;;;19.40;99.90;;;;;;4999770;28;20029;-60
2022/07/30 08:43:52;;;;;;;31.00;16.00;;;19.40;99.90;;;;;;4999394;28;20027;-59
2022/07/30 08:46:19;;;;;;;29.30;15.57;;;19.60;99.90;;;;;;5003286;28;20026;-59
2022/07/30 08:48:46;;;;;;;31.42;15.93;;;19.60;99.90;;;;;;5003813;28;20164;-59
2022/07/30 08:51:13;;;;;;;22.65;15.10;;;19.70;99.90;;;;;;5001385;28;20021;-59
2022/07/30 08:53:40;;;;;;;28.15;15.75;;;19.80;99.90;;;;;;5007372;28;20046;-58
2022/07/30 08:56:06;;;;;;;24.00;14.50;;;19.90;99.90;;;;;;5010824;28;20042;-57
2022/07/30 08:58:34;;;;;;;33.38;15.20;;;20.10;99.90;;;;;;5009130;28;20034;-58
2022/07/30 09:01:00;;;;;;;27.65;13.98;;;20.30;99.90;;;;;;5008370;28;20676;-61
2022/07/30 09:03:26;;;;;;;28.50;13.57;;;20.50;99.90;;;;;;5005409;28;20069;-59
2022/07/30 09:05:52;;;;;;;26.33;15.27;;;20.70;99.90;;;;;;5008710;28;20029;-58
2022/07/30 09:08:17;;;;;;;30.45;16.42;;;20.70;99.90;;;;;;5011126;28;20053;-58
2022/07/30 09:10:43;;;;;;;24.33;13.32;;;20.70;99.90;;;;;;5009159;28;20543;-60
2022/07/30 09:13:31;;;;;;;31.10;15.82;;;21.00;99.90;;;;;;5006211;28;20030;-59
2022/07/30 09:15:57;;;;;;;27.70;13.98;;;21.00;99.90;;;;;;5006809;28;20022;-59
2022/07/30 09:18:28;;;;;;;23.13;14.20;;;20.90;99.90;;;;;;5009335;28;20029;-60
2022/07/30 09:20:54;;;;;;;28.77;17.13;;;20.90;99.90;;;;;;5007127;28;20518;-60
2022/07/30 09:23:20;;;;;;;25.98;16.42;;;20.80;99.90;;;;;;5005236;28;20105;-63
2022/07/30 09:25:48;;;;;;;23.33;14.45;;;20.90;99.90;;;;;;5009214;28;20026;-61
2022/07/30 09:28:14;;;;;;;26.48;15.85;;;21.10;99.90;;;;;;5006733;28;20030;-60
2022/07/30 09:30:52;;;;;;;22.40;13.77;;;21.20;99.90;;;;;;5009784;28;20524;-59
2022/07/30 09:33:37;;;;;;;36.03;15.52;;;21.40;99.90;;;;;;5004418;28;20516;-59
2022/07/30 09:36:05;;;;;;;24.60;14.73;;;21.30;99.90;;;;;;5009763;28;20105;-58
2022/07/30 09:38:51;;;;;;;27.45;15.40;;;21.30;99.90;;;;;;5009454;28;20045;-59
2022/07/30 09:41:21;;;;;;;22.48;13.85;;;21.50;99.90;;;;;;5005669;28;20024;-61
2022/07/30 09:43:48;;;;;;;23.42;15.05;;;21.70;99.90;;;;;;5009146;28;20022;-60
2022/07/30 09:46:14;;;;;;;26.10;14.50;;;21.90;99.90;;;;;;5001501;28;20030;-60
2022/07/30 09:48:41;;;;;;;27.40;14.90;;;21.90;99.90;;;;;;5004581;28;20064;-61
2022/07/30 09:51:07;;;;;;;25.10;15.15;;;22.00;99.90;;;;;;5000992;28;20114;-60
2022/07/30 09:53:33;;;;;;;24.45;15.05;;;22.00;99.90;;;;;;5007884;28;20022;-60
2022/07/30 09:55:59;;;;;;;26.42;15.15;;;22.20;99.90;;;;;;4995066;28;20057;-61
2022/07/30 09:58:38;;;;;;;26.38;15.55;;;22.40;99.90;;;;;;5003761;28;20030;-61
2022/07/30 10:01:04;;;;;;;19.63;13.32;;;22.70;99.90;;;;;;5005879;28;20084;-60
2022/07/30 10:03:30;;;;;;;20.02;13.07;;;22.40;99.90;;;;;;5005328;28;20083;-60
2022/07/30 10:05:58;;;;;;;13.88;10.45;;;22.20;99.90;;;;;;5002695;28;20500;-60
2022/07/30 10:08:44;;;;;;;19.58;9.27;;;22.10;99.90;;;;;;5005490;28;20026;-59
2022/07/30 10:11:25;;;;;;;16.73;9.20;;;22.40;99.90;;;;;;5000857;28;20022;-59
2022/07/30 10:13:54;;;;;;;16.77;8.88;;;22.50;99.90;;;;;;5027810;22;20060;-62
2022/07/30 10:16:20;;;;;;;15.60;7.95;;;22.50;99.90;;;;;;5002592;28;20133;-62
2022/07/30 10:18:46;;;;;;;16.08;7.78;;;22.70;99.90;;;;;;5006742;28;20065;-62
2022/07/30 10:21:12;;;;;;;11.18;7.18;;;22.70;99.90;;;;;;5002568;28;20022;-62
2022/07/30 10:23:39;;;;;;;16.30;7.85;;;22.90;99.90;;;;;;4993486;28;20029;-62
2022/07/30 10:26:06;;;;;;;17.08;8.30;;;23.10;99.90;;;;;;4985268;28;20033;-62
2022/07/30 10:28:32;;;;;;;15.68;7.82;;;23.20;99.90;;;;;;4989724;28;20028;-61
2022/07/30 10:30:59;;;;;;;21.45;8.02;;;23.20;99.90;;;;;;4955818;28;22018;-62
2022/07/30 10:33:29;;;;;;;15.25;6.60;;;23.40;99.90;;;;;;4988754;28;20062;-61
2022/07/30 10:35:55;;;;;;;10.90;6.32;;;23.50;99.90;;;;;;4989230;28;20026;-62
2022/07/30 10:38:27;;;;;;;9.50;5.80;;;23.40;99.90;;;;;;4989023;28;20485;-62
2022/07/30 10:40:57;;;;;;;16.20;7.38;;;23.50;99.90;;;;;;4990154;28;20080;-62
2022/07/30 10:43:41;;;;;;;17.17;6.78;;;23.80;99.90;;;;;;4990501;28;20044;-61
2022/07/30 10:46:21;;;;;;;13.40;5.25;;;23.90;99.90;;;;;;4990681;28;20037;-61
2022/07/30 10:48:47;;;;;;;8.70;4.20;;;24.40;99.90;;;;;;4989220;28;20022;-61
2022/07/30 10:51:12;;;;;;;13.05;6.03;;;24.70;99.90;;;;;;4988912;28;20042;-62
2022/07/30 10:53:41;;;;;;;8.30;5.72;;;24.60;99.90;;;;;;4990441;28;20031;-62
2022/07/30 10:56:20;;;;;;;13.52;6.43;;;24.50;99.90;;;;;;4993455;28;20123;-62
2022/07/30 10:59:06;;;;;;;11.27;6.13;;;24.40;99.90;;;;;;4992087;28;20038;-62
2022/07/30 11:01:47;;;;;;;13.43;7.25;;;24.30;99.90;;;;;;4991446;28;20449;-62
2022/07/30 11:04:18;;;;;;;12.15;5.50;;;24.40;99.90;;;;;;4990465;28;20236;-62
2022/07/30 11:06:44;;;;;;;11.43;5.85;;;24.70;99.90;;;;;;4990325;28;20126;-62
2022/07/30 11:09:35;;;;;;;15.38;5.60;;;24.80;99.90;;;;;;4992609;28;20041;-61
2022/07/30 11:12:00;;;;;;;12.82;5.53;;;24.70;99.90;;;;;;4992465;28;20484;-61
2022/07/30 11:14:44;;;;;;;10.13;4.93;;;24.90;99.90;;;;;;4991412;28;20538;-61
2022/07/30 11:17:11;;;;;;;9.80;4.35;;;25.10;99.90;;;;;;4986887;28;20808;-62
2022/07/30 11:20:08;;;;;;;13.13;4.85;;;25.20;99.90;;;;;;4996168;28;20045;-61
2022/07/30 11:22:43;;;;;;;10.88;5.10;;;25.40;99.90;;;;;;4992182;28;20542;-60
2022/07/30 11:25:21;;;;;;;9.00;5.03;;;25.10;99.90;;;;;;4974605;28;20377;-61
2022/07/30 11:27:49;;;;;;;9.57;6.28;;;25.00;99.90;;;;;;4991946;28;20026;-61
2022/07/30 11:30:14;;;;;;;10.07;5.82;;;25.20;99.90;;;;;;4990482;28;20030;-61
2022/07/30 11:32:41;;;;;;;17.73;5.40;;;25.10;99.90;;;;;;4993105;28;20033;-62
2022/07/30 11:35:20;;;;;;;7.40;4.22;;;25.00;99.90;;;;;;4992227;28;20397;-62
2022/07/30 11:38:14;;;;;;;10.45;4.35;;;25.20;99.90;;;;;;4986465;28;20069;-61
2022/07/30 11:40:48;;;;;;;10.10;4.32;;;25.20;99.90;;;;;;4989491;28;20030;-61
2022/07/30 11:43:22;;;;;;;13.02;4.00;;;25.20;99.90;;;;;;4985016;28;20022;-62
2022/07/30 11:46:04;;;;;;;8.93;3.83;;;25.10;99.90;;;;;;4990577;28;20938;-61
2022/07/30 11:48:30;;;;;;;6.63;3.80;;;25.60;99.90;;;;;;4988233;28;20066;-61
2022/07/30 11:50:56;;;;;;;9.27;4.38;;;25.90;99.90;;;;;;4992283;28;20030;-62
2022/07/30 11:53:22;;;;;;;13.93;4.95;;;25.80;99.90;;;;;;4991440;28;20530;-61
2022/07/30 11:55:54;;;;;;;11.63;4.53;;;26.00;99.90;;;;;;4992171;28;20035;-62
2022/07/30 11:58:24;;;;;;;7.18;3.30;;;26.20;99.90;;;;;;4990914;28;20104;-62
2022/07/30 12:00:50;;;;;;;6.68;3.38;;;26.10;99.90;;;;;;4992104;28;20453;-62
2022/07/30 12:03:18;;;;;;;8.77;3.63;;;26.50;99.90;;;;;;4991237;28;20113;-62
2022/07/30 12:05:45;;;;;;;8.85;3.25;;;26.50;99.90;;;;;;4991271;28;20481;-61
2022/07/30 12:08:12;;;;;;;6.82;2.45;;;26.90;99.90;;;;;;4991960;28;20543;-61
2022/07/30 12:10:38;;;;;;;5.85;2.80;;;26.90;99.90;;;;;;4991778;28;20046;-62
2022/07/30 12:13:12;;;;;;;5.45;2.60;;;26.70;99.80;;;;;;4990022;28;20460;-62
2022/07/30 12:15:40;;;;;;;6.18;2.72;;;26.80;99.90;;;;;;4991633;28;20029;-62
2022/07/30 12:18:07;;;;;;;6.32;2.63;;;26.80;99.90;;;;;;4991520;28;20073;-61
2022/07/30 12:20:33;;;;;;;12.32;4.03;;;27.10;99.90;;;;;;4991255;28;20030;-60
2022/07/30 12:23:01;;;;;;;10.75;3.25;;;27.10;99.60;;;;;;4991166;28;20029;-61
2022/07/30 12:25:26;;;;;;;8.05;3.38;;;26.80;99.90;;;;;;4991187;28;20019;-61
2022/07/30 12:27:52;;;;;;;9.48;2.90;;;26.90;99.90;;;;;;4989706;28;20567;-61
2022/07/30 12:30:19;;;;;;;7.43;2.17;;;27.00;99.90;;;;;;4990561;28;20101;-61
2022/07/30 12:32:46;;;;;;;7.70;3.15;;;27.30;99.60;;;;;;4991479;28;20027;-61
2022/07/30 12:35:12;;;;;;;8.27;3.40;;;27.30;99.10;;;;;;4989267;28;20437;-61
2022/07/30 12:37:39;;;;;;;7.90;3.00;;;27.00;98.60;;;;;;4988089;28;20117;-62